Terminal Aerodrome Forecast
Issued by NWS

Home | Current Version | Previous Version | Text Only | Print | Product List | Glossary On
Versions: 1 2 3 4 5 6 7 8 9 10 11 12 13 14 15 16 17 18
000
FTUS44 KLZK 041421 AAB
TAFHRO
TAF AMD
KHRO 041421Z 0414/0512 12008KT 2SM BR OVC009
      TEMPO 0414/0416 1SM -RA BR OVC002
     FM041600 11007KT 3SM -RA BR OVC009
     FM041700 36005KT 5SM -RA BR BKN008 OVC015
     FM050000 32004KT P6SM OVC025=

USA.gov is the U.S. government's official web portal to all federal, state and local government web resources and services.